Terminal Aerodrome Forecast
Issued by NWS Charleston, WV

Current Version | Previous Version | Graphics & Text | Print | Product List | Glossary On
Versions: 1 2 3 4 5 6 7 8 9 10 11 12 13 14 15 16 17 18 19 20 21 22 23 24
000
FTUS41 KRLX 020900 AAA
TAFBKW
TAF AMD
KBKW 020921Z 0209/0306 31008G16KT 6SM -RA BR OVC003
     FM021000 31008G17KT 3SM -SN BR OVC008
      TEMPO 0211/0212 2SM -SN
     FM021200 31008G19KT P6SM OVC012
     FM021600 32008KT P6SM SCT020=

USA.gov is the U.S. government's official web portal to all federal, state and local government web resources and services.